Time;durP1;ratioP1;P1;durP2;ratioP2;P2;SDS_P1;SDS_P2;PMS_P1;PMS_P2;Temp;Humidity;BMP_temperature;BMP_pressure;BME280_temperature;BME280_humidity;BME280_pressure;Samples;Min_cycle;Max_cycle;Signal;HPM_P1;HPM_P2
2021/09/01 00:00:19;;;;;;;5.85;3.20;;;;;;;23.33;48.11;103361.41;5011108;28;20070;-76
2021/09/01 00:02:45;;;;;;;6.75;2.80;;;;;;;23.39;47.95;103357.28;5010890;28;20499;-75
2021/09/01 00:05:11;;;;;;;7.80;3.30;;;;;;;23.31;48.24;103360.94;5010617;28;20030;-75
2021/09/01 00:07:37;;;;;;;6.13;3.30;;;;;;;23.34;48.00;103368.63;5010049;28;20058;-75
2021/09/01 00:10:07;;;;;;;10.18;3.50;;;;;;;23.32;48.07;103360.59;5009856;28;20070;-74
2021/09/01 00:12:34;;;;;;;7.90;3.20;;;;;;;23.37;47.96;103362.38;5009706;28;20022;-74
2021/09/01 00:14:59;;;;;;;7.95;3.42;;;;;;;23.35;48.10;103359.09;5010473;28;20033;-74
2021/09/01 00:17:25;;;;;;;5.47;3.10;;;;;;;23.28;48.20;103358.84;5010712;28;20548;-74
2021/09/01 00:19:51;;;;;;;10.35;3.45;;;;;;;23.36;48.37;103352.38;5009803;28;20032;-75
2021/09/01 00:22:16;;;;;;;9.05;3.47;;;;;;;23.26;48.50;103348.00;5010624;28;20030;-75
2021/09/01 00:24:42;;;;;;;11.25;3.88;;;;;;;23.31;48.25;103355.38;5011010;28;20042;-93
2021/09/01 00:27:08;;;;;;;7.70;3.80;;;;;;;23.34;48.13;103354.69;5010706;28;20030;-75
2021/09/01 00:29:35;;;;;;;6.28;3.63;;;;;;;23.24;48.32;103347.53;5010840;28;20472;-87
2021/09/01 00:32:05;;;;;;;9.18;3.97;;;;;;;23.29;48.48;103352.91;5011037;28;20025;-75
2021/09/01 00:34:30;;;;;;;5.72;3.08;;;;;;;23.36;48.33;103350.41;5010702;28;20163;-75
2021/09/01 00:36:56;;;;;;;6.55;3.03;;;;;;;23.33;48.47;103351.06;5010780;28;20109;-75
2021/09/01 00:39:22;;;;;;;6.70;3.80;;;;;;;23.29;48.81;103349.31;5010383;28;20037;-74
2021/09/01 00:41:47;;;;;;;6.28;3.22;;;;;;;23.35;48.86;103347.94;5010560;28;20060;-75
2021/09/01 00:44:25;;;;;;;7.82;3.40;;;;;;;23.33;48.71;103353.84;5010422;28;20037;-75
2021/09/01 00:46:52;;;;;;;10.25;3.65;;;;;;;23.41;48.62;103361.34;5010274;28;20543;-75
2021/09/01 00:49:18;;;;;;;7.70;3.60;;;;;;;23.46;48.75;103360.34;5010399;28;20030;-75
2021/09/01 00:51:50;;;;;;;7.95;3.47;;;;;;;23.59;48.39;103364.88;5010338;28;20033;-94
2021/09/01 00:54:22;;;;;;;7.38;3.65;;;;;;;23.59;48.33;103362.06;5010511;28;20022;-94
2021/09/01 00:56:52;;;;;;;11.07;4.32;;;;;;;23.33;49.20;103353.03;5010538;28;20034;-76
2021/09/01 00:59:25;;;;;;;7.18;3.40;;;;;;;23.33;49.53;103361.41;5010456;28;20110;-76
2021/09/01 01:01:52;;;;;;;11.32;4.05;;;;;;;23.42;48.89;103362.16;5010795;28;20026;-75
2021/09/01 01:04:18;;;;;;;8.95;3.35;;;;;;;23.36;49.23;103366.34;5010208;28;20029;-75
2021/09/01 01:06:44;;;;;;;8.02;3.90;;;;;;;23.26;49.36;103356.38;5010476;28;20037;-93
2021/09/01 01:09:11;;;;;;;8.73;4.18;;;;;;;23.32;49.83;103365.38;5009638;28;20106;-92
2021/09/01 01:11:58;;;;;;;6.95;3.83;;;;;;;23.24;50.08;103361.47;5010214;28;20025;-75
2021/09/01 01:14:25;;;;;;;19.35;4.45;;;;;;;23.42;49.67;103359.38;5009787;28;20480;-74
2021/09/01 01:16:50;;;;;;;8.73;4.35;;;;;;;23.44;49.56;103368.25;5010276;28;20026;-75
2021/09/01 01:19:20;;;;;;;14.38;4.20;;;;;;;23.49;49.80;103362.47;5008773;28;20040;-75
2021/09/01 01:21:46;;;;;;;11.32;4.75;;;;;;;23.56;49.42;103361.91;5009386;28;20451;-94
2021/09/01 01:24:12;;;;;;;10.98;3.90;;;;;;;23.66;49.37;103358.78;5009074;28;20049;-94
2021/09/01 01:26:38;;;;;;;9.48;4.13;;;;;;;23.57;49.59;103360.75;5010115;28;20038;-92
2021/09/01 01:29:08;;;;;;;13.60;4.20;;;;;;;23.66;49.68;103365.19;5000642;28;20035;-74
2021/09/01 01:31:35;;;;;;;;;;;;;;;23.64;49.26;103361.88;4990159;28;20172;-74
2021/09/01 01:34:01;;;;;;;7.82;3.80;;;;;;;23.68;49.22;103360.06;4990456;28;19918;-94
2021/09/01 01:36:27;;;;;;;9.80;4.47;;;;;;;23.69;49.08;103358.91;4990357;28;20062;-75
2021/09/01 01:38:52;;;;;;;15.98;5.07;;;;;;;23.76;49.00;103353.59;4990254;28;20030;-75
2021/09/01 01:41:18;;;;;;;8.20;3.15;;;;;;;23.69;49.06;103347.75;4990288;28;20745;-92
2021/09/01 01:43:46;;;;;;;7.03;3.88;;;;;;;23.74;49.01;103355.09;4990397;28;20031;-75
2021/09/01 01:46:11;;;;;;;9.40;4.55;;;;;;;23.73;48.70;103354.28;4990132;28;20084;-86
2021/09/01 01:48:37;;;;;;;10.07;4.13;;;;;;;23.64;49.03;103349.91;4990354;28;20412;-75
2021/09/01 01:51:03;;;;;;;11.68;4.10;;;;;;;23.64;48.35;103350.72;4990078;28;20030;-75
2021/09/01 01:53:30;;;;;;;8.60;3.60;;;;;;;23.67;48.35;103358.44;4990452;28;20109;-75
2021/09/01 01:55:56;;;;;;;9.70;4.22;;;;;;;23.72;48.23;103358.22;4990494;28;20037;-80
2021/09/01 01:58:22;;;;;;;6.95;4.15;;;;;;;23.82;47.98;103358.97;4990549;28;20052;-75
2021/09/01 02:00:48;;;;;;;9.32;4.07;;;;;;;23.82;47.70;103356.19;4993847;28;20026;-76
2021/09/01 02:03:14;;;;;;;9.45;4.00;;;;;;;23.59;48.73;103353.69;4993308;28;20031;-94
2021/09/01 02:05:40;;;;;;;6.75;3.85;;;;;;;23.73;47.74;103356.25;4993631;28;20037;-81
2021/09/01 02:08:06;;;;;;;11.15;5.68;;;;;;;23.67;47.12;103355.63;4992696;28;20388;-75
2021/09/01 02:10:31;;;;;;;12.80;4.53;;;;;;;23.76;46.32;103353.59;4991833;28;20030;-74
2021/09/01 02:12:57;;;;;;;8.27;4.32;;;;;;;23.72;45.92;103358.22;4993276;28;20496;-75
2021/09/01 02:15:23;;;;;;;9.50;3.85;;;;;;;23.74;45.80;103350.34;4993168;28;20405;-75
2021/09/01 02:17:48;;;;;;;7.25;4.80;;;;;;;23.79;45.45;103363.25;4992899;28;20062;-75
2021/09/01 02:20:16;;;;;;;9.50;4.78;;;;;;;23.77;45.28;103368.38;4992903;28;20092;-75
2021/09/01 02:22:42;;;;;;;8.98;4.82;;;;;;;23.78;45.59;103358.84;4992993;28;20030;-80
2021/09/01 02:25:10;;;;;;;9.90;4.45;;;;;;;23.80;45.62;103360.16;4992874;28;20041;-74
2021/09/01 02:27:36;;;;;;;9.95;4.70;;;;;;;23.76;45.61;103359.19;4992828;28;20103;-75
2021/09/01 02:30:03;;;;;;;6.63;4.45;;;;;;;23.81;45.77;103372.13;4993037;28;20114;-75
2021/09/01 02:32:28;;;;;;;12.25;4.90;;;;;;;23.80;45.42;103367.66;4993252;28;20026;-92
2021/09/01 02:34:54;;;;;;;10.93;4.63;;;;;;;23.77;45.46;103363.59;4993285;28;20473;-75
2021/09/01 02:37:20;;;;;;;8.15;3.83;;;;;;;23.79;45.39;103366.84;4993472;28;20485;-93
2021/09/01 02:39:46;;;;;;;7.07;4.40;;;;;;;23.83;45.70;103364.22;4993116;28;20030;-75
2021/09/01 02:42:12;;;;;;;8.75;4.15;;;;;;;23.85;45.42;103363.88;4992776;28;20083;-92
2021/09/01 02:44:37;;;;;;;12.60;4.38;;;;;;;23.76;45.66;103364.75;4992738;28;20121;-75
2021/09/01 02:47:03;;;;;;;9.25;4.22;;;;;;;23.85;45.45;103358.28;4992984;28;20389;-75
2021/09/01 02:49:28;;;;;;;8.85;4.55;;;;;;;23.83;45.39;103358.63;4993445;28;20072;-77
2021/09/01 02:51:54;;;;;;;11.60;4.97;;;;;;;23.77;45.60;103354.41;4993065;28;20028;-93
2021/09/01 02:54:20;;;;;;;8.75;4.50;;;;;;;23.76;45.22;103358.38;4993025;28;20529;-84
2021/09/01 02:56:46;;;;;;;10.55;4.20;;;;;;;23.70;45.21;103356.94;4992989;28;20095;-94
2021/09/01 02:59:12;;;;;;;12.30;5.32;;;;;;;23.68;44.92;103356.47;4992995;28;20026;-94
2021/09/01 03:01:38;;;;;;;8.43;4.40;;;;;;;23.63;44.38;103354.69;4992761;28;20087;-76
2021/09/01 03:04:04;;;;;;;9.65;4.63;;;;;;;23.60;44.15;103351.72;4992584;28;20423;-75
2021/09/01 03:06:30;;;;;;;8.38;3.80;;;;;;;23.65;44.07;103351.53;4992746;28;20092;-92
2021/09/01 03:08:55;;;;;;;13.07;4.70;;;;;;;23.62;44.22;103353.03;4992510;28;20030;-75
2021/09/01 03:11:21;;;;;;;7.25;4.28;;;;;;;23.58;44.26;103360.44;4991718;28;20396;-75
2021/09/01 03:13:47;;;;;;;10.57;4.82;;;;;;;23.60;44.20;103360.94;4992301;28;20492;-75
2021/09/01 03:16:12;;;;;;;10.55;3.88;;;;;;;23.63;44.34;103357.47;4992128;28;20107;-75
2021/09/01 03:18:38;;;;;;;10.90;4.90;;;;;;;23.60;44.28;103349.78;4991974;28;20081;-88
2021/09/01 03:21:04;;;;;;;10.95;5.25;;;;;;;23.53;44.88;103355.88;4992422;28;20026;-75
2021/09/01 03:23:29;;;;;;;11.70;4.35;;;;;;;23.62;44.48;103355.03;4991951;28;20404;-75
2021/09/01 03:25:55;;;;;;;7.03;4.07;;;;;;;23.61;44.65;103347.81;4991995;28;20362;-75
2021/09/01 03:28:20;;;;;;;6.78;4.13;;;;;;;23.61;44.67;103351.41;4992368;28;20101;-93
2021/09/01 03:30:46;;;;;;;10.73;4.75;;;;;;;23.67;44.68;103349.25;4992241;28;20025;-93
2021/09/01 03:33:12;;;;;;;10.55;4.93;;;;;;;23.67;45.28;103349.25;4992238;28;20075;-93
2021/09/01 03:35:38;;;;;;;10.25;4.70;;;;;;;23.59;45.70;103348.13;4992349;28;20097;-75
2021/09/01 03:38:03;;;;;;;12.85;4.00;;;;;;;23.59;45.30;103344.50;4992060;28;20025;-74
2021/09/01 03:40:29;;;;;;;9.80;5.32;;;;;;;23.57;45.29;103347.63;4992076;28;20110;-76
2021/09/01 03:42:55;;;;;;;8.25;4.88;;;;;;;23.55;45.73;103347.16;4992063;28;20354;-74
2021/09/01 03:45:20;;;;;;;8.40;4.90;;;;;;;23.52;46.13;103340.28;4992038;28;20054;-75
2021/09/01 03:47:46;;;;;;;8.25;5.25;;;;;;;23.62;45.91;103336.31;4992101;28;20381;-75
2021/09/01 03:50:12;;;;;;;8.35;4.20;;;;;;;23.67;46.09;103343.66;4991818;28;20049;-94
2021/09/01 03:52:39;;;;;;;9.18;4.30;;;;;;;23.65;45.94;103338.41;4991716;28;20457;-75
2021/09/01 03:55:09;;;;;;;12.57;5.05;;;;;;;23.60;46.29;103347.00;4991922;28;20098;-92
2021/09/01 03:57:35;;;;;;;11.45;5.43;;;;;;;23.63;46.04;103342.69;4990518;28;20030;-75
2021/09/01 04:00:04;;;;;;;9.52;5.18;;;;;;;23.54;46.41;103337.16;4991644;28;20026;-75
2021/09/01 04:02:29;;;;;;;9.95;5.85;;;;;;;23.59;46.29;103344.50;4992142;28;20030;-75
2021/09/01 04:04:55;;;;;;;9.98;5.53;;;;;;;23.69;45.98;103335.75;4991849;28;20030;-75
2021/09/01 04:07:20;;;;;;;11.65;6.20;;;;;;;23.68;46.17;103328.53;4991579;28;20030;-74
2021/09/01 04:09:46;;;;;;;8.95;4.50;;;;;;;23.63;46.51;103337.94;4991381;28;20026;-75
2021/09/01 04:12:12;;;;;;;8.20;4.70;;;;;;;23.60;46.61;103329.41;4991553;28;20518;-93
2021/09/01 04:14:37;;;;;;;8.15;4.45;;;;;;;23.49;46.84;103328.97;4991498;28;20031;-92
2021/09/01 04:17:03;;;;;;;7.88;5.05;;;;;;;23.47;46.86;103328.50;4991802;28;20069;-74
2021/09/01 04:19:29;;;;;;;13.23;5.25;;;;;;;23.45;47.04;103325.25;4991690;28;20113;-75
2021/09/01 04:21:56;;;;;;;8.88;4.93;;;;;;;23.52;46.94;103325.53;4991175;28;20072;-94
2021/09/01 04:24:21;;;;;;;11.43;5.40;;;;;;;23.46;47.12;103322.09;4991346;28;20054;-75
2021/09/01 04:26:47;;;;;;;9.95;4.53;;;;;;;23.44;47.32;103320.81;4991207;28;20038;-75
2021/09/01 04:29:13;;;;;;;7.65;4.45;;;;;;;23.46;47.77;103322.09;4990215;28;20042;-93
2021/09/01 04:31:38;;;;;;;6.93;4.20;;;;;;;23.51;47.41;103324.69;4990021;28;20056;-75
2021/09/01 04:34:04;;;;;;;7.43;4.72;;;;;;;23.53;47.70;103319.59;4991375;28;20150;-75
2021/09/01 04:36:29;;;;;;;9.55;4.88;;;;;;;23.55;47.52;103324.81;4991021;28;20018;-86
2021/09/01 04:38:55;;;;;;;10.48;4.55;;;;;;;23.55;47.60;103319.25;4991167;28;20030;-75
2021/09/01 04:41:21;;;;;;;8.63;4.53;;;;;;;23.65;47.51;103323.63;4991320;28;20031;-74
2021/09/01 04:43:46;;;;;;;8.50;4.22;;;;;;;23.62;47.88;103330.72;4991314;28;20038;-94
2021/09/01 04:46:12;;;;;;;12.18;4.82;;;;;;;23.62;47.71;103332.69;4991177;28;20395;-94
2021/09/01 04:48:38;;;;;;;11.55;4.68;;;;;;;23.63;47.99;103326.75;4991226;28;20033;-78
2021/09/01 04:51:03;;;;;;;14.60;5.40;;;;;;;23.63;48.13;103329.56;4991034;28;20026;-75
2021/09/01 04:53:29;;;;;;;12.35;5.18;;;;;;;23.68;47.81;103326.56;4990683;28;20522;-75
2021/09/01 04:55:54;;;;;;;5.10;3.22;;;;;;;23.62;48.24;103332.69;4991053;28;20030;-75
2021/09/01 04:58:20;;;;;;;7.65;3.90;;;;;;;23.62;48.22;103330.72;4990890;28;20588;-75
2021/09/01 05:00:46;;;;;;;10.43;3.47;;;;;;;23.67;47.72;103327.72;4990840;28;20034;-76
2021/09/01 05:03:11;;;;;;;7.78;3.50;;;;;;;23.57;48.47;103325.28;4991035;28;20096;-93
2021/09/01 05:05:37;;;;;;;11.50;4.50;;;;;;;23.56;48.62;103320.88;4991026;28;20377;-75
2021/09/01 05:08:03;;;;;;;13.88;4.03;;;;;;;23.63;48.75;103328.75;4990712;28;20562;-75
2021/09/01 05:10:30;;;;;;;9.05;3.92;;;;;;;23.59;48.77;103320.22;4991929;28;20034;-75
2021/09/01 05:12:56;;;;;;;7.80;3.42;;;;;;;23.57;48.36;103324.47;4989759;28;20023;-93
2021/09/01 05:15:22;;;;;;;8.35;3.40;;;;;;;23.54;48.37;103329.59;4990712;28;20396;-75
2021/09/01 05:17:48;;;;;;;8.30;3.90;;;;;;;23.61;47.83;103325.47;4991208;28;20026;-76
2021/09/01 05:20:14;;;;;;;11.93;4.00;;;;;;;23.61;47.67;103331.06;4991130;28;20421;-94
2021/09/01 05:22:44;;;;;;;5.00;2.75;;;;;;;23.41;47.45;103329.84;4990555;28;20019;-75
2021/09/01 05:25:13;;;;;;;8.43;3.33;;;;;;;23.59;46.52;103327.78;4990618;28;20409;-77
2021/09/01 05:27:41;;;;;;;9.25;3.47;;;;;;;23.53;46.37;103335.53;4990617;28;20032;-91
2021/09/01 05:30:10;;;;;;;6.55;3.08;;;;;;;23.55;45.97;103333.19;4989258;28;20054;-75
2021/09/01 05:32:37;;;;;;;5.93;3.75;;;;;;;23.58;45.90;103340.91;4989652;28;20095;-93
2021/09/01 05:35:05;;;;;;;9.48;3.50;;;;;;;23.52;46.51;103345.06;4992829;28;20030;-92
2021/09/01 05:37:31;;;;;;;9.23;4.25;;;;;;;23.71;45.89;103337.03;4993809;28;20023;-75
2021/09/01 05:39:58;;;;;;;9.88;3.53;;;;;;;23.74;46.18;103339.16;4993780;28;20034;-94
2021/09/01 05:42:26;;;;;;;10.13;3.88;;;;;;;23.65;46.17;103343.97;4993727;28;20022;-74
2021/09/01 05:44:54;;;;;;;7.10;3.15;;;;;;;23.62;45.89;103341.88;4993781;28;20026;-73
2021/09/01 05:47:20;;;;;;;7.90;3.58;;;;;;;23.63;46.02;103348.28;4993448;28;20029;-74
2021/09/01 05:49:48;;;;;;;9.02;3.05;;;;;;;23.44;46.66;103346.75;4992348;28;20148;-75
2021/09/01 05:52:15;;;;;;;8.07;3.80;;;;;;;23.60;46.59;103357.31;4993829;28;20031;-93
2021/09/01 05:54:46;;;;;;;13.00;4.07;;;;;;;23.79;45.96;103366.03;4992671;28;20473;-86
2021/09/01 05:57:14;;;;;;;7.28;3.45;;;;;;;23.78;46.04;103356.84;4992870;28;20027;-93
2021/09/01 05:59:56;;;;;;;6.50;3.10;;;;;;;23.75;46.29;103357.56;4993597;28;20496;-73
2021/09/01 06:02:38;;;;;;;8.07;4.03;;;;;;;23.80;46.27;103354.56;4994262;28;20477;-91
2021/09/01 06:05:05;;;;;;;8.88;3.63;;;;;;;23.74;46.43;103353.13;4993453;28;20031;-74
2021/09/01 06:07:32;;;;;;;10.73;4.25;;;;;;;23.79;46.33;103355.69;4991834;28;20041;-74
2021/09/01 06:09:59;;;;;;;9.50;3.97;;;;;;;23.78;46.41;103361.63;4992239;28;20172;-75
2021/09/01 06:12:27;;;;;;;11.98;3.83;;;;;;;23.70;46.45;103356.94;4993555;28;20026;-75
2021/09/01 06:14:52;;;;;;;8.48;3.95;;;;;;;23.76;46.51;103361.97;4993773;28;20399;-75
2021/09/01 06:17:18;;;;;;;10.52;4.00;;;;;;;23.91;46.12;103359.72;4993668;28;20105;-75
2021/09/01 06:19:44;;;;;;;8.40;4.13;;;;;;;23.83;46.06;103360.63;4993644;28;20022;-94
2021/09/01 06:22:10;;;;;;;10.48;4.28;;;;;;;23.85;46.25;103361.91;4993167;28;20055;-75
2021/09/01 06:24:36;;;;;;;8.60;3.97;;;;;;;23.96;45.73;103348.34;4993377;28;20413;-91
2021/09/01 06:27:03;;;;;;;10.27;2.92;;;;;;;23.80;46.23;103351.78;4993429;28;20036;-75
2021/09/01 06:29:28;;;;;;;8.57;3.58;;;;;;;23.92;46.16;103350.19;4992198;28;20037;-74
2021/09/01 06:31:55;;;;;;;13.07;4.47;;;;;;;23.93;46.13;103346.22;4994035;28;20026;-75
2021/09/01 06:34:21;;;;;;;6.78;3.60;;;;;;;23.99;45.98;103356.84;4992935;28;20034;-75
2021/09/01 06:36:47;;;;;;;10.70;5.35;;;;;;;24.02;45.66;103349.75;4993285;28;20031;-75
2021/09/01 06:39:13;;;;;;;6.13;3.30;;;;;;;24.00;45.55;103357.66;4992142;28;20113;-93
2021/09/01 06:41:39;;;;;;;10.00;4.10;;;;;;;24.01;45.25;103354.53;4992944;28;20029;-75
2021/09/01 06:44:05;;;;;;;7.85;4.05;;;;;;;24.11;44.59;103358.88;4993916;28;20058;-75
2021/09/01 06:46:30;;;;;;;18.23;4.28;;;;;;;24.01;45.11;103362.91;4993447;28;20069;-75
2021/09/01 06:48:56;;;;;;;16.90;4.88;;;;;;;24.02;44.58;103360.91;4991833;28;20034;-94
2021/09/01 06:51:22;;;;;;;12.38;3.95;;;;;;;24.15;44.46;103364.59;4993226;28;20033;-92
2021/09/01 06:53:48;;;;;;;7.68;4.05;;;;;;;24.07;44.60;103352.34;4992987;28;20396;-78
2021/09/01 06:56:13;;;;;;;12.05;4.97;;;;;;;24.01;44.57;103359.28;4991269;28;20472;-80
2021/09/01 06:58:39;;;;;;;11.35;4.18;;;;;;;24.23;44.52;103360.91;4990821;28;20033;-74
2021/09/01 07:01:05;;;;;;;6.55;4.15;;;;;;;24.11;44.57;103360.84;4992070;28;20445;-74
2021/09/01 07:03:30;;;;;;;14.60;4.68;;;;;;;24.30;43.82;103363.94;4990978;28;20075;-74
2021/09/01 07:05:56;;;;;;;13.20;3.78;;;;;;;24.37;43.58;103357.84;4990741;28;20031;-74
2021/09/01 07:08:23;;;;;;;7.55;4.28;;;;;;;24.43;43.22;103368.44;4991989;28;20026;-74
2021/09/01 07:10:50;;;;;;;14.10;5.30;;;;;;;24.39;43.10;103369.47;4992110;28;20583;-74
2021/09/01 07:13:16;;;;;;;4.85;3.65;;;;;;;24.31;43.27;103369.19;4991878;28;20054;-74
2021/09/01 07:15:43;;;;;;;8.52;3.80;;;;;;;24.41;42.79;103361.56;4999945;28;20030;-75
2021/09/01 07:18:08;;;;;;;9.88;4.57;;;;;;;24.50;42.67;103362.31;4991933;28;20484;-75
2021/09/01 07:20:34;;;;;;;11.35;4.22;;;;;;;24.45;42.76;103366.13;4991703;28;20073;-75
2021/09/01 07:23:00;;;;;;;11.80;4.40;;;;;;;24.54;42.03;103369.63;4991595;28;20078;-76
2021/09/01 07:25:25;;;;;;;8.60;3.88;;;;;;;24.51;41.80;103361.13;4990406;28;20026;-75
2021/09/01 07:27:51;;;;;;;7.40;3.58;;;;;;;24.48;41.31;103368.22;4991291;28;20041;-75
2021/09/01 07:30:17;;;;;;;9.10;4.80;;;;;;;24.64;40.58;103376.78;4990912;28;20045;-75
2021/09/01 07:32:43;;;;;;;6.55;3.85;;;;;;;24.67;40.39;103373.28;4981200;28;20073;-75
2021/09/01 07:35:09;;;;;;;9.10;3.45;;;;;;;24.66;40.27;103377.25;4975172;28;20034;-74
2021/09/01 07:37:43;;;;;;;10.60;4.70;;;;;;;24.76;40.22;103378.75;4976368;28;20109;-74
2021/09/01 07:40:10;;;;;;;9.15;4.30;;;;;;;24.80;40.17;103380.53;4975733;28;20090;-75
2021/09/01 07:42:35;;;;;;;6.07;3.65;;;;;;;24.79;39.89;103380.88;4974304;28;20381;-75
2021/09/01 07:45:01;;;;;;;5.50;3.67;;;;;;;24.80;39.88;103383.31;4974724;28;20026;-75
2021/09/01 07:47:27;;;;;;;9.27;4.93;;;;;;;24.75;39.82;103386.34;4974962;28;20041;-75
2021/09/01 07:49:52;;;;;;;5.32;3.85;;;;;;;24.83;39.93;103384.59;4975335;28;20038;-75
2021/09/01 07:52:18;;;;;;;6.10;3.50;;;;;;;24.84;39.65;103383.44;4974696;28;20026;-75
2021/09/01 07:54:43;;;;;;;6.07;3.35;;;;;;;24.85;39.65;103385.88;4976000;28;20022;-77
2021/09/01 07:57:09;;;;;;;8.00;3.55;;;;;;;25.00;39.36;103395.56;4973441;28;20030;-75
2021/09/01 07:59:35;;;;;;;8.75;3.60;;;;;;;24.97;39.63;103389.88;4975330;28;20041;-75
2021/09/01 08:02:00;;;;;;;5.18;3.67;;;;;;;24.93;38.83;103392.53;4973514;28;20058;-74
2021/09/01 08:04:26;;;;;;;9.68;4.38;;;;;;;24.97;39.12;103395.47;4975379;28;20026;-74
2021/09/01 08:06:52;;;;;;;9.10;4.50;;;;;;;24.98;38.81;103397.09;4975645;28;20042;-75
2021/09/01 08:09:19;;;;;;;5.80;4.10;;;;;;;24.99;39.29;103401.50;5001481;28;20503;-84
2021/09/01 08:11:45;;;;;;;6.05;4.00;;;;;;;25.02;39.49;103403.63;4990108;28;20129;-84
2021/09/01 08:14:11;;;;;;;9.00;3.85;;;;;;;25.01;39.96;103404.78;4991291;28;20097;-75
2021/09/01 08:16:36;;;;;;;7.15;4.07;;;;;;;25.02;40.16;103403.63;4991268;28;20022;-84
2021/09/01 08:19:02;;;;;;;6.45;4.38;;;;;;;24.96;40.71;103405.03;4991067;28;20026;-74
2021/09/01 08:21:27;;;;;;;5.75;3.80;;;;;;;24.95;41.25;103403.38;4990161;28;20035;-74
2021/09/01 08:23:53;;;;;;;9.07;3.75;;;;;;;25.02;41.37;103412.03;4989840;28;20070;-74
2021/09/01 08:26:18;;;;;;;7.80;4.45;;;;;;;24.89;41.38;103406.41;4989156;28;20037;-75
2021/09/01 08:28:45;;;;;;;6.22;4.18;;;;;;;24.96;41.60;103379.84;4990820;28;20678;-74
2021/09/01 08:31:11;;;;;;;8.73;4.78;;;;;;;24.99;41.42;103404.31;4990907;28;20131;-81
2021/09/01 08:33:37;;;;;;;8.75;4.18;;;;;;;24.89;41.22;103411.19;4990441;28;20042;-84
2021/09/01 08:36:03;;;;;;;7.50;4.05;;;;;;;24.86;41.46;103409.06;4990795;28;20429;-73
2021/09/01 08:38:29;;;;;;;10.85;4.32;;;;;;;24.86;41.45;103412.69;4989441;28;20035;-73
2021/09/01 08:40:54;;;;;;;7.22;4.15;;;;;;;24.73;41.08;103419.44;4990951;28;20037;-83
2021/09/01 08:43:20;;;;;;;8.05;4.22;;;;;;;24.94;40.55;103421.31;4989456;28;20111;-79
2021/09/01 08:45:47;;;;;;;7.13;4.20;;;;;;;24.94;40.56;103424.94;4990801;28;20037;-83
2021/09/01 08:48:16;;;;;;;18.10;5.90;;;;;;;24.83;41.14;103430.16;4989186;28;20193;-83
2021/09/01 08:50:42;;;;;;;6.30;4.22;;;;;;;24.91;40.92;103434.03;4990532;28;20396;-74
2021/09/01 08:53:08;;;;;;;8.85;4.30;;;;;;;24.97;40.59;103432.63;4999109;28;20030;-72
2021/09/01 08:55:34;;;;;;;7.40;3.85;;;;;;;25.01;40.25;103427.16;5010029;28;20034;-84
2021/09/01 08:58:00;;;;;;;7.03;4.03;;;;;;;24.97;40.58;103432.63;5010162;28;20069;-82
2021/09/01 09:00:26;;;;;;;8.45;4.45;;;;;;;24.98;40.52;103425.88;5005462;28;20049;-90
2021/09/01 09:02:56;;;;;;;6.45;4.60;;;;;;;24.79;40.77;103423.63;4987981;28;20388;-74
2021/09/01 09:05:37;;;;;;;7.07;4.20;;;;;;;24.99;40.34;103421.09;4990341;28;20026;-90
2021/09/01 09:08:06;;;;;;;7.82;4.50;;;;;;;24.96;40.59;103421.81;4989239;28;20072;-76
2021/09/01 09:10:40;;;;;;;7.70;4.15;;;;;;;24.99;40.92;103435.06;4994360;28;20035;-87
2021/09/01 09:13:07;;;;;;;7.85;4.55;;;;;;;25.04;40.54;103427.31;4994349;28;20061;-79
2021/09/01 09:15:34;;;;;;;5.38;4.05;;;;;;;25.17;40.55;103428.97;4994558;28;20041;-76
2021/09/01 09:18:04;;;;;;;5.75;4.30;;;;;;;25.08;40.89;103438.59;4994142;28;20031;-86
2021/09/01 09:20:34;;;;;;;;;;;;;;;24.98;41.25;103433.44;4993688;28;20392;-72
2021/09/01 09:23:04;;;;;;;6.00;3.65;;;;;;;25.09;40.94;103426.25;4992537;28;20356;-73
2021/09/01 09:25:31;;;;;;;7.72;5.03;;;;;;;25.11;41.11;103430.34;4994032;28;20031;-87
2021/09/01 09:28:01;;;;;;;8.18;5.25;;;;;;;25.13;41.30;103432.81;4993894;28;20117;-74
2021/09/01 09:30:32;;;;;;;5.72;4.15;;;;;;;25.15;40.85;103434.06;4992377;28;20038;-88
2021/09/01 09:33:17;;;;;;;6.15;3.95;;;;;;;24.89;41.21;103433.56;4992704;28;20064;-78
2021/09/01 09:35:57;;;;;;;8.25;5.25;;;;;;;24.75;41.36;103433.88;4992717;28;20079;-75
2021/09/01 09:38:29;;;;;;;9.25;4.10;;;;;;;24.78;41.45;103416.38;4992254;28;20030;-79
2021/09/01 09:40:55;;;;;;;7.70;4.38;;;;;;;24.86;41.37;103423.88;4992216;28;20423;-74
2021/09/01 09:43:23;;;;;;;6.80;4.20;;;;;;;24.86;41.31;103425.84;4984307;28;20031;-73
2021/09/01 09:46:00;;;;;;;8.13;4.72;;;;;;;24.97;41.12;103423.44;4977559;28;20075;-77
2021/09/01 09:48:28;;;;;;;7.05;5.63;;;;;;;24.90;41.23;103422.00;4984412;28;20191;-76
2021/09/01 09:50:53;;;;;;;8.80;4.80;;;;;;;24.96;41.16;103421.81;4993166;28;20110;-77
2021/09/01 09:53:38;;;;;;;10.52;5.50;;;;;;;24.83;41.19;103413.38;4990117;28;20117;-72
2021/09/01 09:56:06;;;;;;;14.50;5.35;;;;;;;24.97;41.03;103417.84;4993243;28;20035;-73
2021/09/01 09:58:35;;;;;;;7.13;4.78;;;;;;;24.89;40.98;103420.38;4992065;28;20431;-73
2021/09/01 10:01:04;;;;;;;8.05;4.80;;;;;;;24.99;41.26;103419.09;4992922;28;20114;-75
2021/09/01 10:03:31;;;;;;;7.40;4.78;;;;;;;24.99;41.36;103418.28;4992852;28;20098;-73
2021/09/01 10:06:00;;;;;;;6.88;4.20;;;;;;;25.12;41.43;103417.19;4991604;28;20365;-77
2021/09/01 10:08:26;;;;;;;8.80;5.35;;;;;;;25.30;41.39;103421.38;4991748;28;20030;-74
2021/09/01 10:10:54;;;;;;;6.22;4.10;;;;;;;25.14;41.93;103417.63;4991600;28;20117;-74
2021/09/01 10:13:21;;;;;;;11.30;5.95;;;;;;;25.21;41.83;103420.69;4992664;28;20071;-83
2021/09/01 10:15:47;;;;;;;7.60;4.32;;;;;;;25.26;41.75;103414.84;4992795;28;20503;-74
2021/09/01 10:18:16;;;;;;;9.48;4.88;;;;;;;25.14;42.44;103426.03;4993043;28;20054;-75
2021/09/01 10:20:45;;;;;;;6.60;4.90;;;;;;;25.16;42.40;103415.31;4990922;28;20022;-79
2021/09/01 10:23:10;;;;;;;8.35;5.05;;;;;;;25.17;42.58;103422.56;4989066;28;20066;-75
2021/09/01 10:25:51;;;;;;;12.45;5.47;;;;;;;25.12;43.04;103419.97;4992043;28;20061;-75
2021/09/01 10:28:20;;;;;;;6.00;5.05;;;;;;;25.12;42.98;103415.19;4992093;28;20099;-75
2021/09/01 10:31:16;;;;;;;7.22;5.18;;;;;;;25.16;42.96;103412.50;4990860;28;20034;-74
2021/09/01 10:33:53;;;;;;;7.03;4.88;;;;;;;25.07;43.14;103411.81;4990841;28;20558;-75
2021/09/01 10:36:25;;;;;;;7.03;4.35;;;;;;;25.02;43.06;103412.03;4991923;28;20037;-74
2021/09/01 10:39:08;;;;;;;7.93;5.60;;;;;;;25.18;43.10;103416.59;4992666;28;20027;-74
2021/09/01 10:41:34;;;;;;;7.18;5.13;;;;;;;25.12;43.06;103414.38;4992455;28;20027;-89
2021/09/01 10:44:41;;;;;;;8.82;5.38;;;;;;;25.31;42.76;103417.41;4993188;28;20468;-89
2021/09/01 10:47:07;;;;;;;8.95;5.60;;;;;;;25.35;42.72;103414.72;4993048;28;20117;-85
2021/09/01 10:49:54;;;;;;;12.68;6.22;;;;;;;25.43;42.85;103430.59;4992845;28;20065;-74
2021/09/01 10:52:21;;;;;;;10.63;5.25;;;;;;;25.46;42.69;103419.50;4991978;28;20080;-75
2021/09/01 10:54:49;;;;;;;13.73;6.10;;;;;;;25.54;42.73;103414.13;5004984;28;20034;-78
2021/09/01 10:57:27;;;;;;;10.30;5.80;;;;;;;25.78;42.17;103418.94;5011505;28;20033;-74
2021/09/01 10:59:57;;;;;;;12.07;5.85;;;;;;;25.79;42.23;103414.94;5012003;28;20030;-74
2021/09/01 11:02:23;;;;;;;11.02;5.50;;;;;;;25.80;42.02;103420.19;5011432;28;20499;-75
2021/09/01 11:04:55;;;;;;;9.85;5.82;;;;;;;25.91;41.53;103421.31;5010918;28;20030;-75
2021/09/01 11:07:26;;;;;;;12.10;6.53;;;;;;;26.04;41.55;103418.50;5010097;28;20133;-86
2021/09/01 11:09:57;;;;;;;11.98;5.20;;;;;;;26.25;41.07;103411.53;5010784;28;20073;-86
2021/09/01 11:12:24;;;;;;;11.20;5.63;;;;;;;26.36;40.96;103420.22;5012558;28;20041;-75
2021/09/01 11:14:50;;;;;;;11.93;5.93;;;;;;;26.39;40.71;103421.53;5011794;28;20026;-74
2021/09/01 11:17:19;;;;;;;12.32;5.20;;;;;;;26.53;40.45;103421.94;5011690;28;20033;-75
2021/09/01 11:19:46;;;;;;;10.73;5.50;;;;;;;26.59;40.55;103422.47;5011405;28;20418;-74
2021/09/01 11:22:26;;;;;;;11.95;5.32;;;;;;;26.67;40.32;103415.88;5011669;28;20055;-75
2021/09/01 11:24:54;;;;;;;13.43;7.60;;;;;;;26.68;40.29;103411.94;5009177;28;20077;-90